createdAt,value
2023-03-20T00:02:22.183Z,59.23
2023-03-20T00:04:52.646Z,56.50
2023-03-20T00:07:23.398Z,54.03
2023-03-20T00:09:53.694Z,59.55
2023-03-20T00:12:30.314Z,57.33
2023-03-20T00:15:05.894Z,56.58
2023-03-20T00:17:36.282Z,57.33
2023-03-20T00:20:06.988Z,59.22
2023-03-20T00:22:37.528Z,66.68
2023-03-20T00:25:08.368Z,66.47
2023-03-20T00:27:38.605Z,62.67
2023-03-20T00:30:25.712Z,66.05
2023-03-20T00:32:57.143Z,64.90
2023-03-20T00:35:31.326Z,60.33
2023-03-20T00:38:01.772Z,61.23
2023-03-20T00:40:33.873Z,65.70
2023-03-20T00:43:06.304Z,67.95
2023-03-20T00:45:39.835Z,64.90
2023-03-20T00:48:18.049Z,65.63
2023-03-20T00:50:49.193Z,70.43
2023-03-20T00:53:19.632Z,63.70
2023-03-20T00:55:50.672Z,65.28
2023-03-20T00:58:21.705Z,63.15
2023-03-20T01:00:52.147Z,64.43
2023-03-20T01:03:25.565Z,63.22
2023-03-20T01:05:55.928Z,65.40
2023-03-20T01:08:28.194Z,68.40
2023-03-20T01:11:01.234Z,63.83
2023-03-20T01:13:33.668Z,60.80
2023-03-20T01:16:04.055Z,66.88
2023-03-20T01:18:35.708Z,62.00
2023-03-20T01:21:06.183Z,63.60
2023-03-20T01:23:37.098Z,60.55
2023-03-20T01:26:26.760Z,63.25
2023-03-20T01:28:57.426Z,56.53
2023-03-20T01:31:27.961Z,67.00
2023-03-20T01:33:58.768Z,60.10
2023-03-20T01:36:29.562Z,58.40
2023-03-20T01:39:01.175Z,56.95
2023-03-20T01:41:33.149Z,60.38
2023-03-20T01:44:20.023Z,63.35
2023-03-20T01:46:52.269Z,64.70
2023-03-20T01:49:23.421Z,63.80
2023-03-20T01:51:55.426Z,60.33
2023-03-20T01:54:40.454Z,55.97
2023-03-20T01:57:14.320Z,59.38
2023-03-20T01:59:53.507Z,62.85
2023-03-20T02:02:28.680Z,56.15
2023-03-20T02:05:05.766Z,57.30
2023-03-20T02:07:38.896Z,59.72
2023-03-20T02:10:15.639Z,61.72
2023-03-20T02:12:53.962Z,60.08
2023-03-20T02:15:34.226Z,55.50
2023-03-20T02:18:12.537Z,55.65
2023-03-20T02:21:08.826Z,54.08
2023-03-20T02:24:17.562Z,55.55
2023-03-20T02:27:19.662Z,54.72
2023-03-20T02:30:14.069Z,55.03
2023-03-20T02:32:51.393Z,51.80
2023-03-20T02:35:40.458Z,54.92
2023-03-20T02:38:32.051Z,47.30
2023-03-20T02:41:12.830Z,51.42
2023-03-20T02:44:14.849Z,56.80
2023-03-20T02:47:02.930Z,49.80
2023-03-20T02:50:05.406Z,46.88
2023-03-20T02:53:11.212Z,48.28
2023-03-20T02:56:04.629Z,48.55
2023-03-20T02:59:25.170Z,44.85
2023-03-20T03:02:14.054Z,51.90
2023-03-20T03:04:54.640Z,43.67
2023-03-20T03:07:29.849Z,43.63
2023-03-20T03:10:14.531Z,46.35
2023-03-20T03:12:50.744Z,40.00
2023-03-20T03:15:31.000Z,46.42
2023-03-20T03:18:05.002Z,47.50
2023-03-20T03:20:39.549Z,45.95
2023-03-20T03:23:16.328Z,41.55
2023-03-20T03:25:48.404Z,41.97
2023-03-20T03:28:27.808Z,40.40
2023-03-20T03:30:59.885Z,43.35
2023-03-20T03:33:35.051Z,45.92
2023-03-20T03:36:14.455Z,40.80
2023-03-20T03:39:00.410Z,38.15
2023-03-20T03:41:46.472Z,43.83
2023-03-20T03:44:25.763Z,40.72
2023-03-20T03:47:04.861Z,41.95
2023-03-20T03:49:51.074Z,39.78
2023-03-20T03:52:25.427Z,40.28
2023-03-20T03:55:02.788Z,41.10
2023-03-20T03:57:50.605Z,40.00
2023-03-20T04:00:27.088Z,43.05
2023-03-20T04:03:00.137Z,37.90
2023-03-20T04:05:34.944Z,40.97
2023-03-20T04:08:07.999Z,37.30
2023-03-20T04:10:38.430Z,40.25
2023-03-20T04:13:11.942Z,42.92
2023-03-20T04:15:42.562Z,40.97
2023-03-20T04:18:21.816Z,41.00
2023-03-20T04:20:53.943Z,40.70
2023-03-20T04:23:24.628Z,41.17
2023-03-20T04:25:55.399Z,40.97
2023-03-20T04:28:26.093Z,38.50
2023-03-20T04:31:14.321Z,35.90
2023-03-20T04:34:13.677Z,40.80
2023-03-20T04:36:58.819Z,38.83
2023-03-20T04:39:38.955Z,39.45
2023-03-20T04:42:10.075Z,36.80
2023-03-20T04:44:40.680Z,37.67
2023-03-20T04:47:11.141Z,41.95
2023-03-20T04:49:45.202Z,42.33
2023-03-20T04:52:15.878Z,41.25
2023-03-20T04:54:47.416Z,37.78
2023-03-20T04:57:18.653Z,38.53
2023-03-20T04:59:49.625Z,34.22
2023-03-20T05:02:20.693Z,34.80
2023-03-20T05:04:51.141Z,38.35
2023-03-20T05:07:23.094Z,33.70
2023-03-20T05:09:59.447Z,35.33
2023-03-20T05:12:31.570Z,34.83
2023-03-20T05:15:11.476Z,32.58
2023-03-20T05:17:42.280Z,38.15
2023-03-20T05:20:28.804Z,35.65
2023-03-20T05:23:06.441Z,35.60
2023-03-20T05:28:53.181Z,31.70
2023-03-20T05:31:46.323Z,38.92
2023-03-20T05:34:37.151Z,32.60
2023-03-20T05:37:14.133Z,33.88
2023-03-20T05:39:44.546Z,32.17
2023-03-20T05:42:50.093Z,31.20
2023-03-20T05:45:52.243Z,30.83
2023-03-20T05:48:46.895Z,32.80
2023-03-20T05:51:52.673Z,34.00
2023-03-20T05:57:42.401Z,31.35
2023-03-20T06:00:44.969Z,31.00
2023-03-20T06:03:47.001Z,33.13
2023-03-20T06:06:23.067Z,27.63
2023-03-20T06:08:54.787Z,29.17
2023-03-20T06:11:25.823Z,31.67
2023-03-20T06:13:57.323Z,27.63
2023-03-20T06:16:38.004Z,28.83
2023-03-20T06:19:08.585Z,29.50
2023-03-20T06:21:38.831Z,32.45
2023-03-20T06:24:14.690Z,31.02
2023-03-20T06:26:46.022Z,28.92
2023-03-20T06:29:17.144Z,28.80
2023-03-20T06:31:49.557Z,26.35
2023-03-20T06:34:29.218Z,24.48
2023-03-20T06:37:00.515Z,26.60
2023-03-20T06:39:31.739Z,25.67
2023-03-20T06:42:02.667Z,27.48
2023-03-20T06:44:33.338Z,24.75
2023-03-20T06:47:26.556Z,23.38
2023-03-20T06:49:56.905Z,24.95
2023-03-20T06:52:27.315Z,24.52
2023-03-20T06:55:18.620Z,23.45
2023-03-20T06:57:49.065Z,20.30
2023-03-20T07:00:23.164Z,26.58
2023-03-20T07:02:53.546Z,22.58
2023-03-20T07:05:25.245Z,23.67
2023-03-20T07:07:57.264Z,23.40
2023-03-20T07:10:29.970Z,22.13
2023-03-20T07:13:00.382Z,22.88
2023-03-20T07:15:31.627Z,24.55
2023-03-20T07:18:02.894Z,24.52
2023-03-20T07:20:33.425Z,24.25
2023-03-20T07:23:04.135Z,23.83
2023-03-20T07:25:42.893Z,20.77
2023-03-20T07:28:18.893Z,24.65
2023-03-20T07:30:55.149Z,24.52
2023-03-20T07:33:27.112Z,24.63
2023-03-20T07:35:57.625Z,24.90
2023-03-20T07:38:28.115Z,21.17
2023-03-20T07:41:08.775Z,20.35
2023-03-20T07:43:44.567Z,20.50
2023-03-20T07:46:24.144Z,20.42
2023-03-20T07:48:58.087Z,25.05
2023-03-20T07:51:28.442Z,20.65
2023-03-20T07:53:59.685Z,20.92
2023-03-20T07:56:30.078Z,19.52
2023-03-20T07:59:00.409Z,18.42
2023-03-20T08:01:30.815Z,20.45
2023-03-20T08:04:01.767Z,20.10
2023-03-20T08:06:32.774Z,21.77
2023-03-20T08:09:03.718Z,20.10
2023-03-20T08:11:34.962Z,21.58
2023-03-20T08:14:05.810Z,20.25
2023-03-20T08:16:36.322Z,22.48
2023-03-20T08:19:08.515Z,18.38
2023-03-20T08:21:38.960Z,18.95
2023-03-20T08:24:10.197Z,19.20
2023-03-20T08:26:40.544Z,17.77
2023-03-20T08:29:10.860Z,21.25
2023-03-20T08:31:42.501Z,19.85
2023-03-20T08:34:13.719Z,19.70
2023-03-20T08:36:43.936Z,18.67
2023-03-20T08:39:14.121Z,17.25
2023-03-20T08:41:47.210Z,19.30
2023-03-20T08:44:18.024Z,18.38
2023-03-20T08:46:49.096Z,17.13
2023-03-20T08:49:19.975Z,18.17
2023-03-20T08:51:50.361Z,20.60
2023-03-20T08:54:21.748Z,17.65
2023-03-20T08:56:52.593Z,22.38
2023-03-20T08:59:22.999Z,20.70
2023-03-20T09:01:53.432Z,18.75
2023-03-20T09:04:23.877Z,19.90
2023-03-20T09:06:54.287Z,16.38
2023-03-20T09:09:30.743Z,19.98
2023-03-20T09:12:02.143Z,21.27
2023-03-20T09:14:32.974Z,24.40
2023-03-20T09:17:04.185Z,21.92
2023-03-20T09:19:34.833Z,19.60
2023-03-20T09:22:05.577Z,20.10
2023-03-20T09:24:36.002Z,20.75
2023-03-20T09:27:06.479Z,21.05
2023-03-20T09:29:36.771Z,20.08
2023-03-20T09:32:07.296Z,19.55
2023-03-20T09:34:37.749Z,18.48
2023-03-20T09:37:08.316Z,20.65
2023-03-20T09:39:38.698Z,20.90
2023-03-20T09:42:28.861Z,21.02
2023-03-20T09:45:22.559Z,20.02
2023-03-20T09:48:02.972Z,18.50
2023-03-20T09:51:24.007Z,24.35
2023-03-20T09:54:21.544Z,19.30
2023-03-20T09:56:54.696Z,20.13
2023-03-20T09:59:27.710Z,17.83
2023-03-20T10:02:07.050Z,22.00
2023-03-20T10:04:38.566Z,20.02
2023-03-20T10:07:13.145Z,22.10
2023-03-20T10:09:44.686Z,18.60
2023-03-20T10:12:36.011Z,22.55
2023-03-20T10:15:16.798Z,20.13
2023-03-20T10:18:04.888Z,20.90
2023-03-20T10:20:50.943Z,22.50
2023-03-20T10:24:05.060Z,18.10
2023-03-20T10:26:39.610Z,23.65
2023-03-20T10:29:25.821Z,20.65
2023-03-20T10:31:58.958Z,24.60
2023-03-20T10:34:51.778Z,20.58
2023-03-20T10:37:49.432Z,19.02
2023-03-20T10:40:38.332Z,19.67
2023-03-20T10:43:23.389Z,20.10
2023-03-20T10:46:06.938Z,22.33
2023-03-20T10:51:20.729Z,22.95
2023-03-20T10:54:04.852Z,23.27
2023-03-20T10:56:41.274Z,23.55
2023-03-20T10:59:24.007Z,21.63
2023-03-20T11:01:54.777Z,20.13
2023-03-20T11:04:25.258Z,19.95
2023-03-20T11:07:21.364Z,19.13
2023-03-20T11:10:18.645Z,20.60
2023-03-20T11:12:51.558Z,21.42
2023-03-20T11:15:33.197Z,20.77
2023-03-20T11:18:06.634Z,24.48
2023-03-20T11:20:45.864Z,21.70
2023-03-20T11:23:23.352Z,21.77
2023-03-20T11:26:04.415Z,26.25
2023-03-20T11:28:50.006Z,21.55
2023-03-20T11:31:27.345Z,23.58
2023-03-20T11:34:21.333Z,22.60
2023-03-20T11:37:11.053Z,19.35
2023-03-20T11:39:54.838Z,22.48
2023-03-20T11:42:28.772Z,22.00
2023-03-20T11:45:17.078Z,22.90
2023-03-20T11:47:56.235Z,26.38
2023-03-20T11:50:38.257Z,22.70
2023-03-20T11:53:31.028Z,26.88
2023-03-20T11:56:08.859Z,21.35
2023-03-20T11:58:57.911Z,21.35
2023-03-20T12:01:30.274Z,22.27
2023-03-20T12:04:00.774Z,21.77
2023-03-20T12:07:14.280Z,19.27
2023-03-20T12:09:53.803Z,21.05
2023-03-20T12:12:29.959Z,21.88
2023-03-20T12:15:30.684Z,21.98
2023-03-20T12:18:25.404Z,18.75
2023-03-20T12:21:17.191Z,20.85
2023-03-20T12:24:12.269Z,21.40
2023-03-20T12:27:02.713Z,20.75
2023-03-20T12:29:45.196Z,18.10
2023-03-20T12:32:37.254Z,23.75
2023-03-20T12:35:15.426Z,18.35
2023-03-20T12:37:47.171Z,20.13
2023-03-20T12:40:23.444Z,18.52
2023-03-20T12:43:21.156Z,18.33
2023-03-20T12:46:26.007Z,20.83
2023-03-20T12:49:10.130Z,20.80
2023-03-20T12:51:59.130Z,22.35
2023-03-20T12:54:42.680Z,18.83
2023-03-20T12:57:30.039Z,20.08
2023-03-20T13:00:30.469Z,19.67
2023-03-20T13:03:06.751Z,20.30
2023-03-20T13:05:49.356Z,21.92
2023-03-20T13:08:39.744Z,17.73
2023-03-20T13:11:13.093Z,22.15
2023-03-20T13:13:51.734Z,23.58
2023-03-20T13:16:36.219Z,21.67
2023-03-20T13:19:29.739Z,18.08
2023-03-20T13:22:13.990Z,20.52
2023-03-20T13:24:56.804Z,20.10
2023-03-20T13:27:41.783Z,21.63
2023-03-20T13:30:37.331Z,21.75
2023-03-20T13:33:23.177Z,21.92
2023-03-20T13:36:10.884Z,20.30
2023-03-20T13:38:48.705Z,20.38
2023-03-20T13:41:20.101Z,19.27
2023-03-20T13:43:58.735Z,20.25
2023-03-20T13:46:43.083Z,23.75
2023-03-20T13:49:34.564Z,21.65
2023-03-20T13:52:11.953Z,24.13
2023-03-20T13:55:18.738Z,22.33
2023-03-20T13:58:09.440Z,22.73
2023-03-20T14:01:17.747Z,22.50
2023-03-20T14:03:48.962Z,22.35
2023-03-20T14:06:43.931Z,21.58
2023-03-20T14:09:32.251Z,21.05
2023-03-20T14:12:09.454Z,20.83
2023-03-20T14:14:52.790Z,19.85
2023-03-20T14:19:56.138Z,22.05
2023-03-20T14:22:32.407Z,20.35
2023-03-20T14:25:10.154Z,21.42
2023-03-20T14:27:59.342Z,19.30
2023-03-20T14:30:38.666Z,20.60
2023-03-20T14:33:18.141Z,20.95
2023-03-20T14:36:05.277Z,21.85
2023-03-20T14:38:57.760Z,23.02
2023-03-20T14:42:03.504Z,22.42
2023-03-20T14:45:08.384Z,22.77
2023-03-20T14:47:44.915Z,21.67
2023-03-20T14:50:25.597Z,23.67
2023-03-20T14:53:28.110Z,22.42
2023-03-20T14:55:58.443Z,21.95
2023-03-20T14:58:59.291Z,27.95
2023-03-20T15:01:46.415Z,26.45
2023-03-20T15:04:38.379Z,22.30
2023-03-20T15:07:32.473Z,20.73
2023-03-20T15:10:04.901Z,24.40
2023-03-20T15:12:40.894Z,22.83
2023-03-20T15:15:27.783Z,22.90
2023-03-20T15:17:58.447Z,20.20
2023-03-20T15:20:33.398Z,19.88
2023-03-20T15:23:06.454Z,23.85
2023-03-20T15:28:11.369Z,25.08
2023-03-20T15:30:43.256Z,19.38
2023-03-20T15:33:21.646Z,24.65
2023-03-20T15:35:53.482Z,20.15
2023-03-20T15:38:24.563Z,24.30
2023-03-20T15:40:55.188Z,22.35
2023-03-20T15:43:28.144Z,25.88
2023-03-20T15:46:16.781Z,23.45
2023-03-20T15:48:52.254Z,23.80
2023-03-20T15:51:28.230Z,21.55
2023-03-20T15:53:58.770Z,23.60
2023-03-20T15:56:29.857Z,24.13
2023-03-20T15:59:00.550Z,24.85
2023-03-20T16:01:34.815Z,26.98
2023-03-20T16:04:06.520Z,24.45
2023-03-20T16:06:37.144Z,23.45
2023-03-20T16:09:10.821Z,23.45
2023-03-20T16:11:43.604Z,24.00
2023-03-20T16:14:22.154Z,22.02
2023-03-20T16:16:55.459Z,28.02
2023-03-20T16:19:28.649Z,24.33
2023-03-20T16:22:04.501Z,24.92
2023-03-20T16:24:40.923Z,21.63
2023-03-20T16:27:12.535Z,23.08
2023-03-20T16:29:45.911Z,24.48
2023-03-20T16:32:40.343Z,22.88
2023-03-20T16:35:23.428Z,22.65
2023-03-20T16:37:59.423Z,24.60
2023-03-20T16:40:40.083Z,27.17
2023-03-20T16:43:21.624Z,24.13
2023-03-20T16:45:57.494Z,25.58
2023-03-20T16:48:35.867Z,27.42
2023-03-20T16:51:38.278Z,28.67
2023-03-20T16:54:30.399Z,26.40
2023-03-20T16:57:02.130Z,25.15
2023-03-20T16:59:32.868Z,28.67
2023-03-20T17:02:03.446Z,25.58
2023-03-20T17:04:41.563Z,27.58
2023-03-20T17:07:29.435Z,25.27
2023-03-20T17:10:18.281Z,26.58
2023-03-20T17:12:51.936Z,28.75
2023-03-20T17:15:26.398Z,25.92
2023-03-20T17:17:56.750Z,26.10
2023-03-20T17:20:33.545Z,29.48
2023-03-20T17:23:05.067Z,25.52
2023-03-20T17:25:35.565Z,28.52
2023-03-20T17:28:06.083Z,28.30
2023-03-20T17:30:36.965Z,25.00
2023-03-20T17:33:15.448Z,24.40
2023-03-20T17:35:46.460Z,26.45
2023-03-20T17:38:23.091Z,27.80
2023-03-20T17:40:55.205Z,27.20
2023-03-20T17:43:27.286Z,22.58
2023-03-20T17:45:57.700Z,25.95
2023-03-20T17:48:28.516Z,27.30
2023-03-20T17:50:59.792Z,24.88
2023-03-20T17:53:32.500Z,25.92
2023-03-20T17:56:03.578Z,25.70
2023-03-20T17:58:33.884Z,24.77
2023-03-20T18:01:05.351Z,27.02
2023-03-20T18:03:35.756Z,26.45
2023-03-20T18:06:08.061Z,31.52
2023-03-20T18:08:40.421Z,28.52
2023-03-20T18:11:11.462Z,26.48
2023-03-20T18:13:42.311Z,26.98
2023-03-20T18:16:25.606Z,25.80
2023-03-20T18:18:58.485Z,28.25
2023-03-20T18:21:29.072Z,27.30
2023-03-20T18:23:59.317Z,26.10
2023-03-20T18:26:30.169Z,23.40
2023-03-20T18:29:00.887Z,22.80
2023-03-20T18:31:31.364Z,29.50
2023-03-20T18:34:01.852Z,26.67
2023-03-20T18:36:32.976Z,24.20
2023-03-20T18:39:05.725Z,26.10
2023-03-20T18:41:36.510Z,23.53
2023-03-20T18:44:06.806Z,24.85
2023-03-20T18:46:38.079Z,27.42
2023-03-20T18:49:08.647Z,24.65
2023-03-20T18:51:39.011Z,27.63
2023-03-20T18:54:09.964Z,28.88
2023-03-20T18:56:40.417Z,24.75
2023-03-20T18:59:14.600Z,25.27
2023-03-20T19:01:45.444Z,26.17
2023-03-20T19:04:15.975Z,23.65
2023-03-20T19:06:46.353Z,26.75
2023-03-20T19:09:18.759Z,26.67
2023-03-20T19:11:50.765Z,27.20
2023-03-20T19:14:21.104Z,25.25
2023-03-20T19:16:52.751Z,26.67
2023-03-20T19:19:23.872Z,29.85
2023-03-20T19:21:54.766Z,27.00
2023-03-20T19:24:25.602Z,26.65
2023-03-20T19:26:58.536Z,25.80
2023-03-20T19:29:28.876Z,29.13
2023-03-20T19:32:01.369Z,21.70
2023-03-20T19:35:23.069Z,24.00
2023-03-20T19:37:22.390Z,24.63
2023-03-20T19:39:53.037Z,28.10
2023-03-20T19:42:52.944Z,25.92
2023-03-20T19:45:14.686Z,27.23
2023-03-20T19:47:44.994Z,29.52
2023-03-20T19:50:41.248Z,26.95
2023-03-20T19:53:14.935Z,25.10
2023-03-20T19:55:45.522Z,25.35
2023-03-20T19:58:16.166Z,26.25
2023-03-20T20:00:57.237Z,26.75
2023-03-20T20:03:29.242Z,23.52
2023-03-20T20:06:01.946Z,22.90
2023-03-20T20:08:45.227Z,29.88
2023-03-20T20:11:20.593Z,25.88
2023-03-20T20:14:06.799Z,26.43
2023-03-20T20:16:41.040Z,25.48
2023-03-20T20:19:11.480Z,25.85
2023-03-20T20:24:32.480Z,26.00
2023-03-20T20:27:16.231Z,26.25
2023-03-20T20:29:53.526Z,27.42
2023-03-20T20:32:28.333Z,27.10
2023-03-20T20:35:40.605Z,25.63
2023-03-20T20:40:41.049Z,27.40
2023-03-20T20:43:22.270Z,24.20
2023-03-20T20:46:03.657Z,30.52
2023-03-20T20:48:34.075Z,28.55
2023-03-20T20:51:04.979Z,26.75
2023-03-20T20:53:35.382Z,27.33
2023-03-20T20:56:06.078Z,27.77
2023-03-20T20:58:36.441Z,27.65
2023-03-20T21:01:07.176Z,29.50
2023-03-20T21:03:38.297Z,32.38
2023-03-20T21:06:09.136Z,28.77
2023-03-20T21:08:39.955Z,25.30
2023-03-20T21:11:10.381Z,28.95
2023-03-20T21:13:41.008Z,21.63
2023-03-20T21:16:11.908Z,21.80
2023-03-20T21:18:43.307Z,18.85
2023-03-20T21:21:15.808Z,17.92
2023-03-20T21:23:46.446Z,17.52
2023-03-20T21:26:16.893Z,19.73
2023-03-20T21:28:47.342Z,16.75
2023-03-20T21:31:28.060Z,16.92
2023-03-20T21:34:01.033Z,15.35
2023-03-20T21:36:31.756Z,19.67
2023-03-20T21:39:08.616Z,23.20
2023-03-20T21:41:41.110Z,22.13
2023-03-20T21:44:17.035Z,23.98
2023-03-20T21:53:12.088Z,27.00
2023-03-20T21:56:17.038Z,26.33
2023-03-20T22:18:59.954Z,25.35
2023-03-20T22:27:35.171Z,26.95
2023-03-20T22:46:45.485Z,30.02
2023-03-20T22:49:17.286Z,34.20
2023-03-20T22:52:07.877Z,29.00
2023-03-20T22:54:39.101Z,30.67
2023-03-20T22:57:09.492Z,32.55
2023-03-20T22:59:39.987Z,33.90
2023-03-20T23:02:10.856Z,32.30
2023-03-20T23:04:41.298Z,34.22
2023-03-20T23:07:12.005Z,32.15
2023-03-20T23:09:42.412Z,30.00
2023-03-20T23:12:13.358Z,30.23
2023-03-20T23:14:46.167Z,35.08
2023-03-20T23:17:16.809Z,33.05
2023-03-20T23:19:52.180Z,32.03
2023-03-20T23:22:27.078Z,34.80
2023-03-20T23:25:02.903Z,34.20
2023-03-20T23:27:40.420Z,31.73
2023-03-20T23:30:12.573Z,36.65
2023-03-20T23:32:43.539Z,31.73
2023-03-20T23:35:14.578Z,29.92
2023-03-20T23:37:45.033Z,33.90
2023-03-20T23:40:15.858Z,30.88
2023-03-20T23:42:46.225Z,34.58
2023-03-20T23:48:08.239Z,35.38
2023-03-20T23:50:51.822Z,37.22
2023-03-20T23:53:24.091Z,35.55
2023-03-20T23:55:58.747Z,35.55
2023-03-20T23:58:29.977Z,33.10
